Time;durP1;ratioP1;P1;durP2;ratioP2;P2;SDS_P1;SDS_P2;PMS_P1;PMS_P2;Temp;Humidity;BMP_temperature;BMP_pressure;BME280_temperature;BME280_humidity;BME280_pressure;Samples;Min_cycle;Max_cycle;Signal;HPM_P1;HPM_P2
2022/06/17 00:00:48;;;;;;;12.27;11.07;;;;;;;22.63;56.71;94932.13;5072751;28;20191;-85
2022/06/17 00:03:15;;;;;;;12.30;11.10;;;;;;;22.64;56.78;94934.53;5072920;28;20668;-86
2022/06/17 00:05:42;;;;;;;11.88;10.77;;;;;;;22.63;56.95;94926.91;5071968;28;20194;-86
2022/06/17 00:08:15;;;;;;;13.60;10.80;;;;;;;22.59;56.93;94923.91;5071320;28;20624;-84
2022/06/17 00:10:44;;;;;;;11.52;10.43;;;;;;;22.57;56.92;94922.50;5073163;28;20199;-86
2022/06/17 00:13:13;;;;;;;11.77;10.68;;;;;;;22.57;57.12;94923.31;5087414;28;20186;-85
2022/06/17 00:15:40;;;;;;;12.43;11.20;;;;;;;22.53;57.11;94922.91;5093028;28;20197;-84
2022/06/17 00:18:07;;;;;;;11.05;10.07;;;;;;;22.51;57.21;94929.34;5092457;28;20338;-84
2022/06/17 00:20:34;;;;;;;11.55;10.40;;;;;;;22.45;57.22;94928.38;5092291;28;20189;-86
2022/06/17 00:23:02;;;;;;;14.45;10.95;;;;;;;22.31;57.29;94924.19;5090633;28;20185;-85
2022/06/17 00:25:31;;;;;;;13.95;10.82;;;;;;;22.32;57.00;94928.38;5091915;28;20201;-82
2022/06/17 00:28:00;;;;;;;13.10;10.77;;;;;;;22.32;57.12;94936.22;5092334;28;20259;-87
2022/06/17 00:30:29;;;;;;;12.57;11.27;;;;;;;22.27;57.04;94931.59;5091536;28;20197;-84
2022/06/17 00:32:58;;;;;;;12.55;11.25;;;;;;;22.26;56.92;94929.22;5084967;28;20705;-85
2022/06/17 00:35:29;;;;;;;10.98;9.98;;;;;;;22.28;56.95;94935.03;5071803;28;20213;-83
2022/06/17 00:37:57;;;;;;;14.32;10.82;;;;;;;22.26;56.89;94942.25;5071920;28;20187;-85
2022/06/17 00:40:27;;;;;;;11.20;10.02;;;;;;;22.22;57.04;94934.03;5071600;28;20225;-86
2022/06/17 00:42:55;;;;;;;11.80;10.52;;;;;;;22.20;56.99;94930.84;5075728;28;20610;-84
2022/06/17 00:45:33;;;;;;;11.52;10.32;;;;;;;22.10;57.01;94922.59;5071510;28;20198;-85
2022/06/17 00:48:04;;;;;;;12.85;10.38;;;;;;;22.04;57.17;94908.59;5071528;28;20217;-84
2022/06/17 00:50:37;;;;;;;10.70;9.60;;;;;;;21.85;56.97;94886.00;5071572;28;20193;-86
2022/06/17 00:53:17;;;;;;;13.07;10.93;;;;;;;22.09;57.03;94928.81;5072857;28;20561;-81
2022/06/17 00:55:47;;;;;;;11.45;10.35;;;;;;;21.93;57.02;94905.78;5070647;28;20224;-87
2022/06/17 00:58:18;;;;;;;12.35;9.70;;;;;;;22.03;57.18;94925.22;5084593;28;20197;-84
2022/06/17 01:00:47;;;;;;;11.63;10.32;;;;;;;21.99;57.37;94918.03;5091596;28;20253;-86
2022/06/17 01:03:21;;;;;;;11.85;9.88;;;;;;;21.99;57.43;94921.41;5091936;28;20218;-88
2022/06/17 01:05:52;;;;;;;11.43;10.40;;;;;;;21.94;57.35;94926.44;5088488;28;20668;-88
2022/06/17 01:11:07;;;;;;;11.43;10.32;;;;;;;21.92;57.57;94918.00;5090873;28;20186;-87
2022/06/17 01:13:34;;;;;;;13.52;10.70;;;;;;;21.90;57.78;94930.44;5090801;28;20211;-85
2022/06/17 01:16:03;;;;;;;11.63;10.43;;;;;;;21.87;58.01;94917.81;5089825;28;20564;-88
2022/06/17 01:18:34;;;;;;;20.70;11.77;;;;;;;21.85;57.76;94919.84;5092427;28;20253;-83
2022/06/17 01:21:06;;;;;;;12.38;11.07;;;;;;;21.84;57.96;94915.63;5091637;28;20197;-83
2022/06/17 01:23:35;;;;;;;12.70;11.18;;;;;;;21.70;58.29;94895.81;5092378;28;20190;-80
2022/06/17 01:26:02;;;;;;;11.73;10.32;;;;;;;21.78;58.44;94906.81;5082768;28;20190;-87
2022/06/17 01:28:29;;;;;;;12.45;10.98;;;;;;;21.78;58.52;94908.63;5075970;28;20659;-85
2022/06/17 01:30:59;;;;;;;13.52;11.98;;;;;;;21.65;58.62;94887.81;5074008;28;20763;-84
2022/06/17 01:33:28;;;;;;;12.20;11.00;;;;;;;21.28;58.68;94824.94;5075067;28;20186;-88
2022/06/17 01:36:00;;;;;;;12.10;10.90;;;;;;;21.59;58.73;94878.19;5075434;28;20198;-89
2022/06/17 01:38:30;;;;;;;13.23;11.25;;;;;;;21.62;58.94;94880.41;5087439;28;20182;-87
2022/06/17 01:41:00;;;;;;;12.95;10.65;;;;;;;21.67;59.09;94885.78;5090732;28;20211;-87
2022/06/17 01:43:31;;;;;;;12.85;11.13;;;;;;;21.64;59.10;94883.63;5074029;28;20199;-84
2022/06/17 01:46:03;;;;;;;12.80;11.23;;;;;;;21.63;59.17;94884.59;5071610;28;20191;-84
2022/06/17 01:48:37;;;;;;;12.10;10.82;;;;;;;21.61;59.27;94887.41;5071162;28;20221;-87
2022/06/17 01:51:07;;;;;;;13.20;11.00;;;;;;;21.59;59.38;94884.22;5070946;28;20191;-87
2022/06/17 01:53:39;;;;;;;11.60;10.50;;;;;;;21.44;59.54;94874.00;5071789;28;20194;-88
2022/06/17 01:56:10;;;;;;;12.15;10.95;;;;;;;;;;5071658;28;20206;-84
2022/06/17 01:58:42;;;;;;;12.55;10.35;;;;;;;21.48;59.56;94879.59;5072050;28;20285;-87
2022/06/17 02:01:10;;;;;;;11.82;10.63;;;;;;;21.52;59.77;94891.22;5070856;28;20182;-83
2022/06/17 02:03:42;;;;;;;10.50;9.43;;;;;;;21.40;59.80;94874.59;5071229;28;20186;-82
2022/06/17 02:06:13;;;;;;;12.93;10.53;;;;;;;21.43;59.89;94882.81;5071499;28;20251;-85
2022/06/17 02:08:40;;;;;;;11.45;10.18;;;;;;;21.46;59.73;94895.44;5085231;28;20222;-86
2022/06/17 02:11:09;;;;;;;12.63;10.88;;;;;;;21.29;60.08;94883.78;5091069;28;20186;-86
2022/06/17 02:13:36;;;;;;;12.57;10.50;;;;;;;21.39;60.00;94899.03;5091384;28;20655;-85
2022/06/17 02:16:06;;;;;;;11.55;10.45;;;;;;;21.41;60.07;94912.63;5091742;28;20186;-88
2022/06/17 02:18:34;;;;;;;11.40;10.35;;;;;;;21.39;60.06;94912.03;5095876;28;20864;-82
2022/06/17 02:21:07;;;;;;;12.95;10.20;;;;;;;21.37;60.20;94914.81;5101793;28;20617;-86
2022/06/17 02:23:35;;;;;;;12.38;11.07;;;;;;;21.35;60.25;94914.22;5099444;28;20186;-86
2022/06/17 02:26:06;;;;;;;11.90;10.35;;;;;;;21.28;60.22;94908.16;5096170;28;20272;-85
2022/06/17 02:28:36;;;;;;;11.80;10.60;;;;;;;21.33;60.38;94918.84;5094862;28;20221;-82
2022/06/17 02:31:08;;;;;;;11.23;10.20;;;;;;;21.25;60.32;94903.38;5094993;28;20641;-86
2022/06/17 02:33:37;;;;;;;11.02;9.93;;;;;;;20.98;60.66;94864.34;5090798;28;20197;-85
2022/06/17 02:36:10;;;;;;;11.82;10.38;;;;;;;21.28;60.52;94908.97;5075186;28;20268;-87
2022/06/17 02:38:38;;;;;;;12.63;10.82;;;;;;;21.28;60.62;94908.16;5095391;28;20211;-85
2022/06/17 02:41:07;;;;;;;11.00;9.90;;;;;;;21.25;60.80;94904.19;5094975;28;20668;-89
2022/06/17 02:43:42;;;;;;;12.73;10.00;;;;;;;21.13;60.78;94884.97;5094430;28;20198;-86
2022/06/17 02:46:15;;;;;;;12.53;11.07;;;;;;;21.22;60.72;94914.19;5074732;28;20182;-81
2022/06/17 02:48:46;;;;;;;13.90;10.10;;;;;;;21.21;60.97;94912.59;5075005;28;20221;-91
2022/06/17 02:51:14;;;;;;;12.68;10.20;;;;;;;21.10;61.09;94900.16;5074862;28;20186;-88
2022/06/17 02:53:42;;;;;;;11.93;10.73;;;;;;;21.16;61.02;94917.59;5075418;28;20277;-86
2022/06/17 02:56:15;;;;;;;12.43;10.77;;;;;;;21.03;61.00;94898.34;5074312;28;20253;-83
2022/06/17 02:58:53;;;;;;;12.48;11.18;;;;;;;21.13;61.08;94915.38;5074220;28;20251;-87
2022/06/17 03:01:23;;;;;;;10.95;9.85;;;;;;;21.12;61.04;94914.56;5073806;28;20193;-84
2022/06/17 03:03:52;;;;;;;11.55;10.35;;;;;;;21.01;60.84;94895.13;5073999;28;20209;-87
2022/06/17 03:06:21;;;;;;;13.88;10.57;;;;;;;20.82;61.03;94864.69;5074322;28;20197;-83
2022/06/17 03:08:51;;;;;;;11.73;10.53;;;;;;;21.12;61.12;94914.56;5074644;28;20719;-87
2022/06/17 03:11:20;;;;;;;11.07;9.80;;;;;;;21.11;61.12;94907.75;5073486;28;20198;-82
2022/06/17 03:13:51;;;;;;;12.70;9.87;;;;;;;21.04;61.22;94899.94;5073205;28;20644;-84
2022/06/17 03:16:20;;;;;;;11.30;10.10;;;;;;;21.05;61.29;94901.53;5074310;28;20213;-84
2022/06/17 03:18:49;;;;;;;12.50;10.03;;;;;;;20.82;61.29;94861.31;5073114;28;20233;-84
2022/06/17 03:21:20;;;;;;;13.38;10.68;;;;;;;21.11;60.91;94905.13;5073014;28;20194;-83
2022/06/17 03:23:52;;;;;;;11.10;10.00;;;;;;;21.04;61.24;94897.34;5073122;28;20199;-83
2022/06/17 03:26:25;;;;;;;13.70;10.13;;;;;;;21.18;61.16;94924.16;5072961;28;20206;-85
2022/06/17 03:28:54;;;;;;;13.47;10.50;;;;;;;21.17;61.13;94913.97;5072119;28;20227;-85
2022/06/17 03:31:25;;;;;;;10.35;9.35;;;;;;;21.21;61.18;94912.59;5072854;28;20194;-86
2022/06/17 03:33:58;;;;;;;17.60;10.03;;;;;;;21.23;61.22;94905.38;5073334;28;20258;-88
2022/06/17 03:36:29;;;;;;;11.60;10.37;;;;;;;21.26;61.09;94925.78;5090250;28;20194;-85
2022/06/17 03:38:58;;;;;;;11.25;10.00;;;;;;;21.28;61.18;94929.78;5093846;28;20622;-87
2022/06/17 03:41:29;;;;;;;13.00;10.57;;;;;;;21.32;61.15;94929.44;5093274;28;20568;-84
2022/06/17 03:44:02;;;;;;;10.83;9.83;;;;;;;21.33;61.13;94920.63;5093707;28;20610;-87
2022/06/17 03:46:34;;;;;;;11.57;9.85;;;;;;;21.29;61.19;94910.59;5093454;28;20178;-87
2022/06/17 03:49:05;;;;;;;10.02;9.00;;;;;;;21.38;61.24;94923.44;5093110;28;20209;-86
2022/06/17 03:51:35;;;;;;;9.85;8.95;;;;;;;21.28;60.90;94902.97;5072691;28;20190;-82
2022/06/17 03:54:02;;;;;;;12.07;10.83;;;;;;;21.44;60.99;94928.63;5072885;28;20187;-84
2022/06/17 03:56:34;;;;;;;11.23;10.10;;;;;;;21.54;60.84;94939.47;5072366;28;20269;-84
2022/06/17 03:59:05;;;;;;;10.90;9.68;;;;;;;21.60;60.74;94948.28;5073260;28;20193;-83
2022/06/17 04:01:35;;;;;;;13.60;11.23;;;;;;;21.64;60.63;94946.88;5072389;28;20681;-85
2022/06/17 04:04:12;;;;;;;12.63;10.60;;;;;;;21.69;60.57;94944.47;5073620;28;20573;-85
2022/06/17 04:06:42;;;;;;;12.80;10.48;;;;;;;21.69;60.42;94933.25;5078780;28;20197;-84
2022/06/17 04:09:17;;;;;;;13.05;10.40;;;;;;;21.74;60.29;94941.28;5073005;28;20210;-85
2022/06/17 04:11:47;;;;;;;10.65;9.55;;;;;;;21.83;60.35;94949.69;5072606;28;20815;-87
2022/06/17 04:14:22;;;;;;;10.38;9.27;;;;;;;21.88;60.30;94944.66;5077944;28;20708;-86
2022/06/17 04:16:55;;;;;;;16.95;11.07;;;;;;;21.92;60.14;94954.47;5092757;28;20181;-85
2022/06/17 04:19:24;;;;;;;14.60;11.48;;;;;;;21.97;60.27;94951.25;5092754;28;20201;-83
2022/06/17 04:21:54;;;;;;;17.33;10.52;;;;;;;21.90;59.92;94935.66;5090867;28;20204;-87
2022/06/17 04:24:24;;;;;;;13.20;11.30;;;;;;;22.03;59.86;94955.69;5092394;28;20182;-88
2022/06/17 04:26:54;;;;;;;13.40;11.27;;;;;;;22.08;59.81;94960.28;5094871;28;20196;-84
2022/06/17 04:29:34;;;;;;;13.13;10.73;;;;;;;22.12;59.70;94961.47;5092005;28;20609;-89
2022/06/17 04:32:06;;;;;;;14.80;10.48;;;;;;;22.08;59.63;94947.25;5075889;28;20193;-84
2022/06/17 04:34:32;;;;;;;10.60;8.50;;;;;;;22.20;59.33;94948.28;5090573;28;20188;-83
2022/06/17 04:37:04;;;;;;;14.35;9.10;;;;;;;22.26;59.17;94950.06;5091990;28;20189;-82
2022/06/17 04:39:34;;;;;;;10.82;9.30;;;;;;;22.39;59.88;94947.41;5090856;28;20198;-84
2022/06/17 04:42:06;;;;;;;10.35;9.05;;;;;;;22.49;59.21;94952.19;5091537;28;20197;-77
2022/06/17 04:44:35;;;;;;;12.50;9.30;;;;;;;22.57;59.07;94956.41;5091094;28;20182;-81
2022/06/17 04:47:06;;;;;;;12.88;8.95;;;;;;;22.59;59.05;94947.38;5090754;28;20227;-78
2022/06/17 04:49:35;;;;;;;9.38;8.48;;;;;;;22.62;59.16;94939.13;5090577;28;20213;-79
2022/06/17 04:52:07;;;;;;;12.18;8.32;;;;;;;22.77;59.36;94955.31;5083571;28;20191;-79
2022/06/17 04:54:36;;;;;;;10.38;8.35;;;;;;;22.87;58.92;94954.88;5070953;28;20191;-82
2022/06/17 04:57:04;;;;;;;9.98;8.98;;;;;;;22.95;58.83;94959.88;5071192;28;20194;-79
2022/06/17 04:59:36;;;;;;;9.80;8.80;;;;;;;22.98;58.28;94956.06;5071330;28;20186;-77
2022/06/17 05:02:06;;;;;;;13.02;9.02;;;;;;;23.08;58.04;94951.19;5071325;28;20201;-83
2022/06/17 05:04:34;;;;;;;8.75;7.93;;;;;;;23.13;58.07;94937.53;5083982;28;20690;-79
2022/06/17 05:07:01;;;;;;;10.13;8.65;;;;;;;23.26;58.00;94945.28;5076096;28;20877;-79
2022/06/17 05:09:32;;;;;;;17.70;8.48;;;;;;;23.42;58.62;94950.00;5070487;28;20317;-79
2022/06/17 05:12:03;;;;;;;13.75;8.68;;;;;;;23.64;60.01;94949.66;5070407;28;20198;-78
2022/06/17 05:14:42;;;;;;;13.52;8.45;;;;;;;23.96;62.30;94945.19;5070896;28;20189;-77
2022/06/17 05:17:09;;;;;;;9.73;7.93;;;;;;;24.26;63.40;94929.63;5070407;28;20402;-78
2022/06/17 05:19:36;;;;;;;12.52;8.93;;;;;;;24.86;63.26;94950.72;5070736;28;20665;-78
2022/06/17 05:22:05;;;;;;;12.85;8.43;;;;;;;25.39;62.07;94959.72;5070505;28;20194;-77
2022/06/17 05:24:32;;;;;;;16.45;8.90;;;;;;;25.94;60.25;94954.28;5070925;28;20197;-78
2022/06/17 05:26:59;;;;;;;11.98;8.00;;;;;;;26.53;58.83;94949.84;5070150;28;20661;-78
2022/06/17 05:29:26;;;;;;;12.52;7.55;;;;;;;27.15;57.34;94954.50;5070725;28;20226;-78
2022/06/17 05:31:55;;;;;;;13.75;7.05;;;;;;;27.71;55.15;94948.38;5070297;28;20214;-79
2022/06/17 05:34:22;;;;;;;10.40;6.95;;;;;;;28.40;53.85;94956.03;5070588;28;20201;-79
2022/06/17 05:36:49;;;;;;;9.88;6.57;;;;;;;29.03;52.44;94953.97;5070341;28;20202;-79
2022/06/17 05:39:16;;;;;;;12.10;6.32;;;;;;;29.68;50.75;94950.41;5070259;28;20218;-79
2022/06/17 05:41:43;;;;;;;8.85;6.68;;;;;;;30.32;49.63;94941.66;5069881;28;20190;-79
2022/06/17 05:44:14;;;;;;;8.43;6.97;;;;;;;30.89;47.86;94938.25;5070259;28;20191;-80
2022/06/17 05:46:43;;;;;;;7.78;5.70;;;;;;;31.55;46.37;94937.63;5070075;28;20200;-78
2022/06/17 05:49:11;;;;;;;10.32;5.60;;;;;;;32.10;44.82;94933.44;5070170;28;20555;-78
2022/06/17 05:51:38;;;;;;;11.60;5.65;;;;;;;32.68;43.75;94938.34;5073999;28;20272;-80
2022/06/17 05:54:05;;;;;;;12.10;5.57;;;;;;;33.27;42.43;94948.16;5084946;28;20557;-80
2022/06/17 05:56:32;;;;;;;7.40;5.38;;;;;;;33.80;41.47;94944.91;5088282;28;20189;-79
2022/06/17 05:58:59;;;;;;;5.70;4.68;;;;;;;34.28;41.33;94950.34;5088984;28;20717;-77
2022/06/17 06:01:26;;;;;;;12.50;5.00;;;;;;;34.76;39.66;94945.91;5086680;28;20202;-77
2022/06/17 06:03:52;;;;;;;8.23;5.00;;;;;;;35.21;38.98;94938.44;5082443;28;20201;-78
2022/06/17 06:06:21;;;;;;;10.00;5.30;;;;;;;35.65;37.92;94937.28;5089392;28;20205;-78
2022/06/17 06:08:47;;;;;;;6.97;5.18;;;;;;;36.06;37.54;94942.78;5088930;28;20207;-76
2022/06/17 06:11:14;;;;;;;6.82;5.03;;;;;;;36.41;37.29;94935.22;5089159;28;20592;-82
2022/06/17 06:13:42;;;;;;;10.57;5.60;;;;;;;36.74;36.70;94935.94;5088695;28;20200;-78
2022/06/17 06:16:09;;;;;;;5.47;4.60;;;;;;;37.00;36.05;94932.78;5086810;28;20221;-78
2022/06/17 06:18:39;;;;;;;6.93;4.43;;;;;;;37.22;35.24;94935.53;5085348;28;20236;-78
2022/06/17 06:21:06;;;;;;;8.25;4.80;;;;;;;37.49;35.03;94937.34;5089071;28;20200;-80
2022/06/17 06:23:36;;;;;;;6.38;4.30;;;;;;;37.77;34.35;94946.00;5087524;28;20197;-77
2022/06/17 06:26:05;;;;;;;5.95;4.18;;;;;;;38.02;33.50;94941.97;5088384;28;20211;-78
2022/06/17 06:28:32;;;;;;;5.35;4.63;;;;;;;38.21;33.02;94938.28;5088914;28;20246;-79
2022/06/17 06:31:03;;;;;;;8.98;4.75;;;;;;;38.48;32.53;94942.72;5088540;28;20209;-77
2022/06/17 06:33:30;;;;;;;8.68;4.57;;;;;;;38.70;32.13;94939.94;5086283;28;20194;-78
2022/06/17 06:35:56;;;;;;;5.40;4.38;;;;;;;38.87;31.98;94939.25;5088974;28;20189;-78
2022/06/17 06:38:23;;;;;;;4.60;4.20;;;;;;;38.98;31.99;94937.84;5082634;28;20205;-78
2022/06/17 06:40:53;;;;;;;6.30;4.53;;;;;;;39.06;32.15;94926.38;5088760;28;20205;-76
2022/06/17 06:43:22;;;;;;;8.05;4.65;;;;;;;39.18;31.78;94941.81;5085913;28;20600;-74
2022/06/17 06:45:51;;;;;;;7.80;4.43;;;;;;;39.27;31.59;94931.94;5087734;28;20197;-79
2022/06/17 06:48:21;;;;;;;6.13;4.22;;;;;;;39.40;31.00;94932.88;5089221;28;20185;-79
2022/06/17 06:50:49;;;;;;;8.43;4.63;;;;;;;39.49;30.58;94930.97;5088756;28;20225;-77
2022/06/17 06:53:16;;;;;;;8.30;4.22;;;;;;;39.56;30.27;94925.16;5088772;28;20543;-76
2022/06/17 06:55:43;;;;;;;5.70;4.25;;;;;;;39.58;30.20;94926.41;5088913;28;20580;-77
2022/06/17 06:58:14;;;;;;;5.72;4.13;;;;;;;39.57;30.17;94932.09;5088688;28;20198;-77
2022/06/17 07:00:43;;;;;;;5.63;3.78;;;;;;;39.49;29.56;94932.88;5086589;28;20193;-77
2022/06/17 07:03:11;;;;;;;4.20;3.45;;;;;;;39.39;29.82;94934.78;5088891;28;20578;-78
2022/06/17 07:05:41;;;;;;;5.60;3.95;;;;;;;39.33;30.06;94925.31;5092397;28;20189;-78
2022/06/17 07:08:10;;;;;;;10.90;4.20;;;;;;;39.28;30.14;94932.72;5092609;28;20796;-78
2022/06/17 07:10:37;;;;;;;5.85;4.40;;;;;;;39.13;30.17;94921.34;5088851;28;20221;-78
2022/06/17 07:13:08;;;;;;;6.30;3.63;;;;;;;39.16;30.11;94933.28;5091995;28;20196;-78
2022/06/17 07:15:37;;;;;;;9.68;4.53;;;;;;;39.12;30.18;94925.13;5089667;28;20259;-78
2022/06/17 07:18:06;;;;;;;4.68;3.95;;;;;;;39.20;30.29;94931.56;5092088;28;20675;-78
2022/06/17 07:20:38;;;;;;;4.25;3.80;;;;;;;39.28;30.31;94930.03;5091122;28;20572;-77
2022/06/17 07:23:05;;;;;;;5.40;3.67;;;;;;;39.35;30.16;94925.00;5091141;28;20197;-77
2022/06/17 07:25:33;;;;;;;5.50;3.65;;;;;;;39.45;29.87;94911.31;5091733;28;20227;-77
2022/06/17 07:28:00;;;;;;;10.52;4.13;;;;;;;39.54;29.77;94909.41;5091924;28;20277;-78
2022/06/17 07:30:29;;;;;;;8.55;4.70;;;;;;;39.64;29.74;94913.66;5089388;28;20217;-77
2022/06/17 07:32:57;;;;;;;4.28;3.58;;;;;;;39.74;29.83;94917.94;5090024;28;20194;-78
2022/06/17 07:35:25;;;;;;;7.50;4.10;;;;;;;39.82;29.56;94911.78;5089427;28;20194;-78
2022/06/17 07:40:37;;;;;;;4.90;3.50;;;;;;;39.89;29.08;94899.44;5091550;28;20290;-78
2022/06/17 07:43:04;;;;;;;10.80;4.30;;;;;;;40.00;28.92;94901.81;5091619;28;20612;-79
2022/06/17 07:45:32;;;;;;;6.57;3.90;;;;;;;40.00;29.25;94907.94;5087844;28;20190;-78
2022/06/17 07:48:02;;;;;;;5.75;4.10;;;;;;;40.09;29.22;94910.59;5090446;28;20193;-77
2022/06/17 07:50:31;;;;;;;5.68;3.80;;;;;;;40.13;29.12;94909.66;5088835;28;20255;-77
2022/06/17 07:52:59;;;;;;;4.57;3.33;;;;;;;40.16;29.19;94910.13;5091979;28;20182;-77
2022/06/17 07:55:26;;;;;;;4.88;3.75;;;;;;;40.20;28.99;94903.84;5091049;28;20197;-77
2022/06/17 07:57:53;;;;;;;6.53;4.53;;;;;;;40.13;28.82;94895.50;5087572;28;20240;-78
2022/06/17 08:00:24;;;;;;;6.05;4.18;;;;;;;40.18;29.11;94902.56;5088331;28;20205;-78
2022/06/17 08:02:51;;;;;;;4.63;3.80;;;;;;;40.16;28.69;94900.22;5090940;28;20231;-78
2022/06/17 08:05:21;;;;;;;5.63;3.83;;;;;;;40.15;29.13;94901.31;5091197;28;20197;-78
2022/06/17 08:07:48;;;;;;;6.38;3.97;;;;;;;40.13;29.31;94903.53;5091348;28;20192;-79
2022/06/17 08:10:17;;;;;;;5.97;4.30;;;;;;;40.14;28.97;94897.06;5091211;28;20220;-77
2022/06/17 08:12:44;;;;;;;6.95;4.68;;;;;;;40.03;29.19;94885.88;5084519;28;20194;-78
2022/06/17 08:15:12;;;;;;;4.38;3.97;;;;;;;40.05;29.52;94885.56;5090214;28;20604;-78
2022/06/17 08:17:40;;;;;;;5.65;3.63;;;;;;;40.07;29.11;94891.38;5089122;28;20221;-78
2022/06/17 08:20:09;;;;;;;4.60;3.67;;;;;;;40.03;29.23;94893.09;5090295;28;20178;-78
2022/06/17 08:22:38;;;;;;;4.13;3.72;;;;;;;39.97;29.49;94889.03;5086895;28;20272;-80
2022/06/17 08:25:06;;;;;;;6.53;4.47;;;;;;;39.87;29.21;94882.91;5091126;28;20201;-78
2022/06/17 08:27:33;;;;;;;6.25;3.50;;;;;;;39.85;29.29;94879.75;5086491;28;20190;-78
2022/06/17 08:30:00;;;;;;;7.60;3.70;;;;;;;39.80;29.68;94885.28;5090578;28;20193;-78
2022/06/17 08:35:12;;;;;;;5.30;4.07;;;;;;;39.62;29.56;94873.03;5090465;28;20239;-78
2022/06/17 08:37:40;;;;;;;5.30;3.95;;;;;;;39.52;30.04;94876.03;5087421;28;20199;-78
2022/06/17 08:40:20;;;;;;;4.40;4.00;;;;;;;39.48;30.07;94875.09;5090260;28;20182;-78
2022/06/17 08:43:04;;;;;;;6.28;4.15;;;;;;;39.37;29.58;94870.03;5090179;28;20668;-78
2022/06/17 08:45:37;;;;;;;4.88;4.43;;;;;;;39.25;30.08;94869.09;5089173;28;20182;-78
2022/06/17 08:48:25;;;;;;;5.13;4.25;;;;;;;39.07;29.79;94870.97;5090220;28;20648;-78
2022/06/17 08:51:07;;;;;;;4.15;3.75;;;;;;;38.92;30.08;94876.78;5085250;28;20311;-79
2022/06/17 08:54:04;;;;;;;7.10;4.47;;;;;;;38.76;30.31;94871.84;5086946;28;20177;-78
2022/06/17 08:56:39;;;;;;;4.65;4.22;;;;;;;38.62;30.61;94861.28;5090119;28;20264;-78
2022/06/17 08:59:16;;;;;;;4.68;4.28;;;;;;;38.51;30.47;94868.00;5088842;28;20188;-78
2022/06/17 09:01:51;;;;;;;5.85;4.50;;;;;;;38.39;30.85;94870.50;5089382;28;20199;-76
2022/06/17 09:04:32;;;;;;;5.82;3.72;;;;;;;38.30;30.97;94869.63;5089841;28;20627;-77
2022/06/17 09:07:11;;;;;;;6.63;4.57;;;;;;;38.18;30.93;94872.91;5084808;28;20196;-77
2022/06/17 09:10:28;;;;;;;5.85;4.88;;;;;;;38.01;31.11;94872.84;5083219;28;20281;-77
2022/06/17 09:13:09;;;;;;;5.28;4.15;;;;;;;37.83;31.32;94872.72;5084855;28;20189;-77
2022/06/17 09:15:41;;;;;;;6.15;4.40;;;;;;;37.69;31.48;94866.66;5082159;28;20189;-79
2022/06/17 09:18:18;;;;;;;5.45;4.57;;;;;;;37.58;31.48;94874.13;5086918;28;20233;-80
2022/06/17 09:20:53;;;;;;;6.05;4.10;;;;;;;37.36;31.83;94847.44;5080671;28;20192;-78
2022/06/17 09:23:24;;;;;;;4.28;3.88;;;;;;;37.37;31.83;94865.00;5087076;28;20189;-77
2022/06/17 09:25:56;;;;;;;4.65;4.25;;;;;;;37.21;31.89;94856.56;5086835;28;20200;-78
2022/06/17 09:28:27;;;;;;;10.13;4.85;;;;;;;37.00;32.19;94842.09;5086926;28;20751;-78
2022/06/17 09:31:02;;;;;;;6.72;4.15;;;;;;;37.00;32.10;94861.56;5083162;28;20198;-76
2022/06/17 09:33:36;;;;;;;6.35;4.43;;;;;;;36.83;31.98;94864.84;5077794;28;20247;-76
2022/06/17 09:36:09;;;;;;;6.63;4.40;;;;;;;36.64;32.15;94856.19;5085743;28;20623;-78
2022/06/17 09:38:41;;;;;;;7.20;4.82;;;;;;;36.54;32.30;94854.53;5087614;28;20186;-78
2022/06/17 09:41:15;;;;;;;7.03;4.20;;;;;;;36.45;32.17;94856.31;5086806;28;20197;-80
2022/06/17 09:43:47;;;;;;;4.72;4.22;;;;;;;36.39;32.37;94852.91;5085095;28;20205;-78
2022/06/17 09:46:20;;;;;;;5.28;4.40;;;;;;;36.33;32.24;94848.00;5086751;28;20198;-79
2022/06/17 09:48:55;;;;;;;5.63;4.60;;;;;;;36.31;32.16;94852.81;5087730;28;20186;-79
2022/06/17 09:51:29;;;;;;;7.03;4.30;;;;;;;36.15;32.25;94829.16;5087657;28;20209;-79
2022/06/17 09:54:01;;;;;;;4.93;4.30;;;;;;;36.16;32.19;94841.38;5089831;28;20636;-79
2022/06/17 09:56:34;;;;;;;5.47;4.30;;;;;;;36.20;32.06;94846.13;5089139;28;20181;-83
2022/06/17 09:59:12;;;;;;;6.13;4.47;;;;;;;36.16;31.86;94848.59;5088948;28;20210;-79
2022/06/17 10:01:39;;;;;;;4.93;4.28;;;;;;;36.16;32.29;94846.72;5084961;28;20200;-76
2022/06/17 10:04:10;;;;;;;6.10;4.53;;;;;;;36.12;31.84;94850.25;5086125;28;20588;-79
2022/06/17 10:06:44;;;;;;;4.47;4.07;;;;;;;36.02;31.87;94847.78;5089370;28;20189;-79
2022/06/17 10:09:32;;;;;;;5.10;3.50;;;;;;;36.01;31.64;94849.66;5089385;28;20238;-79
2022/06/17 10:12:07;;;;;;;3.92;3.53;;;;;;;35.96;31.61;94843.59;5089077;28;20221;-78
2022/06/17 10:14:52;;;;;;;3.50;3.20;;;;;;;35.87;31.53;94844.28;5083704;28;20266;-79
2022/06/17 10:20:28;;;;;;;4.38;3.40;;;;;;;35.79;31.34;94849.47;5088315;28;20200;-78
2022/06/17 10:23:04;;;;;;;3.72;3.42;;;;;;;35.75;30.84;94848.50;5089003;28;20208;-78
2022/06/17 10:25:43;;;;;;;3.60;3.30;;;;;;;35.65;30.86;94839.59;5088059;28;20230;-79
2022/06/17 10:28:37;;;;;;;4.45;3.95;;;;;;;35.52;30.97;94819.06;5087594;28;20192;-77
2022/06/17 10:31:12;;;;;;;4.10;3.72;;;;;;;35.62;30.90;94834.06;5087913;28;20218;-79
2022/06/17 10:33:44;;;;;;;4.97;3.45;;;;;;;35.57;30.91;94844.81;5086350;28;20577;-77
2022/06/17 10:36:11;;;;;;;5.53;3.75;;;;;;;35.52;30.68;94831.59;5087668;28;20268;-78
2022/06/17 10:38:43;;;;;;;8.10;3.08;;;;;;;35.49;30.79;94834.81;5091106;28;20268;-78
2022/06/17 10:41:12;;;;;;;3.60;3.05;;;;;;;35.41;30.56;94830.94;5090750;28;20283;-76
2022/06/17 10:43:45;;;;;;;3.38;2.92;;;;;;;35.42;30.47;94835.97;5092546;28;20197;-75
2022/06/17 10:46:15;;;;;;;3.72;3.40;;;;;;;35.41;30.35;94836.28;5073602;28;20190;-75
2022/06/17 10:48:50;;;;;;;3.90;3.33;;;;;;;35.34;30.21;94819.88;5090216;28;20224;-76
2022/06/17 10:51:18;;;;;;;9.43;3.58;;;;;;;35.33;31.76;94834.28;5090442;28;20216;-85
2022/06/17 10:53:48;;;;;;;4.03;3.60;;;;;;;35.28;32.28;94829.81;5090678;28;20192;-78
2022/06/17 10:56:20;;;;;;;6.20;3.78;;;;;;;35.23;32.83;94837.06;5092917;28;20246;-77
2022/06/17 10:59:02;;;;;;;7.55;3.70;;;;;;;35.21;32.63;94831.25;5092740;28;20652;-78
2022/06/17 11:01:52;;;;;;;8.55;3.75;;;;;;;35.13;32.05;94827.38;5090446;28;20379;-76
2022/06/17 11:04:29;;;;;;;6.65;3.88;;;;;;;35.03;31.66;94833.66;5086225;28;20193;-80
2022/06/17 11:07:02;;;;;;;9.68;3.92;;;;;;;34.98;32.20;94836.41;5092627;28;20185;-81
2022/06/17 11:09:33;;;;;;;7.47;3.40;;;;;;;34.90;32.56;94837.78;5088915;28;20182;-77
2022/06/17 11:12:05;;;;;;;7.07;3.90;;;;;;;34.84;32.61;94825.63;5092727;28;20225;-76
2022/06/17 11:14:51;;;;;;;5.40;3.63;;;;;;;34.78;33.31;94824.13;5092136;28;20197;-77
2022/06/17 11:17:24;;;;;;;5.45;4.03;;;;;;;34.72;33.66;94837.78;5091118;28;20225;-78
2022/06/17 11:20:03;;;;;;;7.45;4.05;;;;;;;34.66;33.95;94829.88;5089808;28;20174;-78
2022/06/17 11:22:49;;;;;;;8.50;3.90;;;;;;;34.61;34.27;94827.28;5090800;28;20225;-77
2022/06/17 11:25:27;;;;;;;6.88;4.22;;;;;;;34.57;34.49;94822.84;5093315;28;20212;-77
2022/06/17 11:27:58;;;;;;;8.35;4.40;;;;;;;34.49;34.14;94818.16;5092859;28;20203;-78
2022/06/17 11:30:30;;;;;;;9.13;4.85;;;;;;;34.41;34.00;94819.53;5091660;28;20985;-80
2022/06/17 11:33:00;;;;;;;6.55;5.07;;;;;;;34.31;33.70;94825.78;5087905;28;20300;-77
2022/06/17 11:35:36;;;;;;;7.70;5.03;;;;;;;34.21;34.18;94825.91;5090712;28;20247;-77
2022/06/17 11:38:06;;;;;;;6.32;4.70;;;;;;;34.08;34.76;94824.72;5089646;28;20189;-81
2022/06/17 11:40:36;;;;;;;5.00;4.50;;;;;;;33.93;34.73;94816.88;5093363;28;20197;-77
2022/06/17 11:43:06;;;;;;;5.07;4.65;;;;;;;33.84;34.95;94816.69;5092434;28;20224;-78
2022/06/17 11:45:37;;;;;;;5.78;4.75;;;;;;;33.74;35.39;94818.69;5092994;28;20189;-80
2022/06/17 11:48:11;;;;;;;5.75;4.50;;;;;;;33.63;35.89;94810.78;5093097;28;20198;-79
2022/06/17 11:50:41;;;;;;;8.32;4.95;;;;;;;33.55;35.96;94806.13;5092304;28;20250;-75
2022/06/17 11:53:16;;;;;;;5.72;5.05;;;;;;;33.46;35.54;94805.13;5076524;28;20236;-76
2022/06/17 11:55:46;;;;;;;5.05;4.65;;;;;;;33.31;35.06;94798.06;5091312;28;20577;-77